Time;durP1;ratioP1;P1;durP2;ratioP2;P2;SDS_P1;SDS_P2;PMS_P1;PMS_P2;Temp;Humidity;BMP_temperature;BMP_pressure;BME280_temperature;BME280_humidity;BME280_pressure;Samples;Min_cycle;Max_cycle;Signal;HPM_P1;HPM_P2
2023/04/11 00:02:14;;;;;;;;;;;16.70;37.80;;;12.81;45.25;95337.25;5011802;28;19905;-48
2023/04/11 00:04:40;;;;;;;;;;;16.80;37.70;;;12.83;44.70;95337.75;5011105;28;19909;-46
2023/04/11 00:07:08;;;;;;;;;;;16.80;37.60;;;12.86;44.98;95350.56;5011624;28;19915;-46
2023/04/11 00:09:34;;;;;;;;;;;16.80;37.60;;;12.88;44.55;95361.75;5010986;28;19916;-46
2023/04/11 00:12:03;;;;;;;;;;;16.80;37.40;;;12.92;43.94;95374.28;5011753;28;19904;-47
2023/04/11 00:14:32;;;;;;;;;;;16.90;37.40;;;12.95;44.20;95373.72;5009972;28;20003;-48
2023/04/11 00:16:59;;;;;;;;;;;16.90;37.20;;;13.01;44.28;95371.78;5001288;28;19905;-45
2023/04/11 00:19:27;;;;;;;;;;;16.90;37.20;;;13.03;44.00;95358.91;5011416;28;19909;-46
2023/04/11 00:21:57;;;;;;;;;;;17.00;37.20;;;13.02;43.78;95365.34;5010726;28;20007;-46
2023/04/11 00:24:24;;;;;;;;;;;17.00;37.10;;;13.02;43.81;95368.00;5010513;28;19912;-45
2023/04/11 00:26:51;;;;;;;;;;;17.00;37.00;;;13.02;43.64;95357.31;5011391;28;19905;-45
2023/04/11 00:29:16;;;;;;;;;;;17.00;36.90;;;13.06;43.67;95353.00;5009498;28;19905;-49
2023/04/11 00:31:42;;;;;;;;;;;17.00;36.80;;;13.07;43.68;95356.47;5011668;28;19958;-47
2023/04/11 00:34:08;;;;;;;;;;;17.00;36.70;;;13.07;43.79;95367.97;5010346;28;20033;-47
2023/04/11 00:36:33;;;;;;;;;;;17.00;36.70;;;13.07;43.86;95364.50;4991950;28;19909;-47
2023/04/11 00:39:02;;;;;;;;;;;17.10;36.70;;;13.03;43.57;95358.91;4990750;28;19906;-45
2023/04/11 00:41:28;;;;;;;;;;;17.10;36.70;;;13.03;43.67;95337.50;5011989;28;19905;-48
2023/04/11 00:43:54;;;;;;;;;;;17.10;36.60;;;13.06;43.85;95328.91;5014973;28;20271;-46
2023/04/11 00:46:20;;;;;;;;;;;17.10;36.60;;;13.01;43.98;95334.34;5014371;28;19905;-45
2023/04/11 00:48:47;;;;;;;;;;;17.10;36.50;;;13.02;44.10;95333.25;5014883;28;20363;-44
2023/04/11 00:51:18;;;;;;;;;;;17.00;36.50;;;13.00;44.53;95315.91;5014903;28;19911;-45
2023/04/11 00:53:47;;;;;;;;;;;17.00;36.60;;;12.93;44.61;95309.03;5015210;28;19915;-45
2023/04/11 00:56:13;;;;;;;;;;;17.00;36.50;;;12.86;44.91;95299.78;5014708;28;19909;-45
2023/04/11 00:58:40;;;;;;;;;;;17.00;36.50;;;12.84;45.04;95301.91;5014094;28;19912;-46
2023/04/11 01:01:10;;;;;;;;;;;16.90;36.50;;;12.78;45.25;95295.84;5014756;28;19909;-43
2023/04/11 01:03:40;;;;;;;;;;;17.00;36.60;;;12.77;45.31;95283.56;5014048;28;19913;-45
2023/04/11 01:06:10;;;;;;;;;;;16.90;36.60;;;12.73;45.96;95309.28;5014882;28;20004;-45
2023/04/11 01:08:39;;;;;;;;;;;16.80;36.60;;;12.64;48.99;95313.66;5014654;28;20287;-50
2023/04/11 01:11:06;;;;;;;;;;;16.80;36.60;;;12.59;51.02;95311.81;5013694;28;20004;-44
2023/04/11 01:13:35;;;;;;;;;;;16.80;36.80;;;12.47;52.30;95324.75;5014690;28;19913;-46
2023/04/11 01:16:02;;;;;;;;;;;16.70;37.00;;;12.40;51.79;95297.59;5006168;28;20394;-44
2023/04/11 01:18:28;;;;;;;;;;;16.50;37.10;;;12.27;50.40;95289.16;5011356;28;20007;-44
2023/04/11 01:20:55;;;;;;;;;;;16.50;37.20;;;12.16;49.56;95278.84;5014663;28;20012;-44
2023/04/11 01:23:24;;;;;;;;;;;16.40;37.30;;;12.11;50.16;95277.03;5012701;28;20327;-45
2023/04/11 01:25:50;;;;;;;;;;;16.30;37.40;;;12.05;49.85;95278.16;5013554;28;19962;-45
2023/04/11 01:28:18;;;;;;;;;;;16.30;37.70;;;11.98;50.44;95294.50;5013489;28;19980;-45
2023/04/11 01:30:44;;;;;;;;;;;16.20;37.80;;;11.99;50.12;95285.41;5010895;28;19999;-54
2023/04/11 01:33:12;;;;;;;;;;;16.20;37.90;;;12.01;49.91;95285.16;5010687;28;19995;-47
2023/04/11 01:35:39;;;;;;;;;;;16.20;38.00;;;12.03;49.73;95277.63;5009157;28;19919;-44
2023/04/11 01:38:05;;;;;;;;;;;16.20;38.10;;;12.05;49.73;95286.16;5010898;28;19904;-46
2023/04/11 01:40:33;;;;;;;;;;;16.20;38.20;;;12.07;49.60;95284.03;5002993;28;19912;-48
2023/04/11 01:43:00;;;;;;;;;;;16.20;38.30;;;12.07;49.38;95300.03;4994502;28;19905;-46
2023/04/11 01:45:28;;;;;;;;;;;16.20;38.40;;;12.10;49.21;95298.69;4993708;28;20016;-44
2023/04/11 01:47:54;;;;;;;;;;;16.20;38.40;;;12.11;49.46;95301.06;5012961;28;19905;-47
2023/04/11 01:50:21;;;;;;;;;;;16.20;38.50;;;12.13;49.20;95300.78;5012575;28;20007;-45
2023/04/11 01:52:50;;;;;;;;;;;16.20;38.50;;;12.16;49.26;95297.53;5012946;28;20433;-46
2023/04/11 01:55:16;;;;;;;;;;;16.20;38.50;;;12.16;49.17;95284.19;5013689;28;19909;-44
2023/04/11 01:57:42;;;;;;;;;;;16.20;38.50;;;12.15;49.09;95275.38;5012959;28;19905;-44
2023/04/11 02:00:12;;;;;;;;;;;16.20;38.50;;;12.16;49.25;95278.84;5013983;28;19911;-45
2023/04/11 02:02:38;;;;;;;;;;;16.30;38.60;;;12.15;49.25;95269.25;5013718;28;19905;-44
2023/04/11 02:05:04;;;;;;;;;;;16.30;38.60;;;12.16;49.19;95258.31;5013034;28;19931;-44
2023/04/11 02:07:30;;;;;;;;;;;16.30;38.60;;;12.18;48.96;95250.78;5013844;28;19999;-46
2023/04/11 02:09:57;;;;;;;;;;;16.30;38.60;;;12.22;48.76;95259.03;5009655;28;19956;-43
2023/04/11 02:12:23;;;;;;;;;;;16.30;38.60;;;12.22;48.84;95251.84;5013673;28;19904;-45
2023/04/11 02:14:49;;;;;;;;;;;16.30;38.60;;;12.22;48.64;95249.16;5013553;28;20332;-44
2023/04/11 02:17:17;;;;;;;;;;;16.30;38.60;;;12.24;48.62;95255.00;5012643;28;19959;-44
2023/04/11 02:19:46;;;;;;;;;;;16.30;38.60;;;12.26;48.71;95255.53;5013657;28;19911;-44
2023/04/11 02:22:14;;;;;;;;;;;16.30;38.60;;;12.28;48.68;95263.25;5011512;28;19912;-44
2023/04/11 02:24:40;;;;;;;;;;;16.40;38.70;;;12.29;48.43;95262.19;5013099;28;19905;-44
2023/04/11 02:27:07;;;;;;;;;;;16.40;38.60;;;12.30;48.39;95269.09;5012121;28;19909;-44
2023/04/11 02:29:33;;;;;;;;;;;16.40;38.60;;;12.33;48.64;95273.88;5011384;28;19904;-44
2023/04/11 02:31:59;;;;;;;;;;;16.40;38.60;;;12.34;48.69;95285.34;5013169;28;19951;-45
2023/04/11 02:34:25;;;;;;;;;;;16.40;38.60;;;12.37;48.72;95280.25;5012523;28;19909;-45
2023/04/11 02:36:52;;;;;;;;;;;16.40;38.60;;;12.34;49.61;95275.47;5013283;28;20029;-44
2023/04/11 02:39:22;;;;;;;;;;;16.40;38.60;;;12.39;51.42;95263.94;5028048;28;19911;-51
2023/04/11 02:41:49;;;;;;;;;;;16.40;38.70;;;12.34;50.80;95270.13;5013238;28;19905;-49
2023/04/11 02:44:15;;;;;;;;;;;16.40;39.00;;;12.31;51.12;95268.03;5012726;28;19974;-45
2023/04/11 02:46:41;;;;;;;;;;;16.30;39.20;;;12.31;50.78;95275.25;5012186;28;19911;-44
2023/04/11 02:49:07;;;;;;;;;;;16.30;39.30;;;12.31;52.09;95277.91;5013118;28;19905;-46
2023/04/11 02:51:33;;;;;;;;;;;16.30;39.50;;;12.25;54.51;95288.66;5010822;28;19905;-47
2023/04/11 02:53:58;;;;;;;;;;;16.30;39.60;;;12.16;55.24;95310.88;5012788;28;19967;-46
2023/04/11 02:56:24;;;;;;;;;;;16.20;39.80;;;12.08;57.49;95303.50;5012769;28;19904;-49
2023/04/11 02:58:51;;;;;;;;;;;16.10;40.20;;;11.95;58.78;95318.28;5012202;28;20386;-45
2023/04/11 03:01:20;;;;;;;;;;;15.90;40.50;;;11.80;59.95;95311.16;5012727;28;19909;-44
2023/04/11 03:03:46;;;;;;;;;;;15.80;40.80;;;11.65;62.39;95306.72;5010926;28;19943;-45
2023/04/11 03:06:11;;;;;;;;;;;15.60;41.10;;;11.52;64.81;95308.16;5012559;28;19944;-47
2023/04/11 03:08:38;;;;;;;;;;;15.50;41.60;;;11.41;63.98;95313.84;5012625;28;19911;-45
2023/04/11 03:11:05;;;;;;;;;;;15.40;42.00;;;11.36;64.24;95306.66;4997300;28;20344;-46
2023/04/11 03:13:32;;;;;;;;;;;15.30;42.40;;;11.33;66.35;95315.19;4993076;28;19928;-44
2023/04/11 03:15:58;;;;;;;;;;;15.20;42.70;;;11.21;65.75;95309.41;4997560;28;19944;-48
2023/04/11 03:18:23;;;;;;;;;;;15.10;43.00;;;11.16;67.59;95296.13;5012634;28;19960;-48
2023/04/11 03:20:51;;;;;;;;;;;15.10;43.20;;;11.08;67.39;95302.78;5012453;28;19909;-44
2023/04/11 03:23:17;;;;;;;;;;;15.00;43.50;;;11.08;68.25;95314.25;5011364;28;20162;-46
2023/04/11 03:25:43;;;;;;;;;;;14.90;43.70;;;10.96;69.31;95326.31;5010932;28;20359;-47
2023/04/11 03:28:10;;;;;;;;;;;14.90;43.90;;;10.93;71.32;95313.53;5011136;28;19905;-46
2023/04/11 03:30:39;;;;;;;;;;;14.80;44.10;;;10.75;72.56;95330.91;5027538;28;19908;-46
2023/04/11 03:33:05;;;;;;;;;;;14.70;44.50;;;10.71;73.51;95330.66;5012121;28;19905;-46
2023/04/11 03:35:31;;;;;;;;;;;14.60;44.70;;;10.64;73.84;95312.28;4992944;28;20352;-46
2023/04/11 03:37:57;;;;;;;;;;;14.60;44.90;;;10.56;74.83;95336.81;4992627;28;19912;-43
2023/04/11 03:40:24;;;;;;;;;;;14.50;45.30;;;10.47;74.03;95327.00;4992669;28;20249;-46
2023/04/11 03:42:50;;;;;;;;;;;14.40;45.90;;;10.40;76.11;95324.59;4993038;28;20036;-44
2023/04/11 03:45:17;;;;;;;;;;;14.40;46.40;;;10.27;77.35;95323.28;4991834;28;20319;-52
2023/04/11 03:47:43;;;;;;;;;;;14.30;47.40;;;10.12;79.20;95294.81;5011822;28;19905;-46
2023/04/11 03:50:09;;;;;;;;;;;14.10;49.20;;;10.01;82.18;95325.16;5011885;28;19912;-44
2023/04/11 03:52:36;;;;;;;;;;;14.00;49.70;;;9.92;84.60;95319.56;5011047;28;20306;-44
2023/04/11 03:55:02;;;;;;;;;;;13.90;51.00;;;9.82;85.30;95324.88;5026965;28;19909;-50
2023/04/11 03:57:28;;;;;;;;;;;13.80;51.50;;;9.76;87.54;95312.63;5009258;28;19995;-46
2023/04/11 03:59:57;;;;;;;;;;;13.70;51.90;;;9.76;88.76;95335.78;4992431;28;19905;-50
2023/04/11 04:02:24;;;;;;;;;;;13.70;52.10;;;9.70;90.43;95338.44;4995032;28;19912;-44
2023/04/11 04:04:54;;;;;;;;;;;13.60;52.00;;;9.57;92.43;95335.50;5007751;28;19908;-44
2023/04/11 04:07:23;;;;;;;;;;;13.60;52.70;;;9.49;94.28;95337.63;5010561;28;19991;-44
2023/04/11 04:09:49;;;;;;;;;;;13.50;53.20;;;9.37;94.84;95334.41;5010568;28;19941;-44
2023/04/11 04:12:18;;;;;;;;;;;13.50;53.50;;;9.36;96.14;95347.94;5011625;28;19909;-44
2023/04/11 04:14:44;;;;;;;;;;;13.40;53.80;;;9.30;96.52;95346.31;5013505;28;19994;-44
2023/04/11 04:17:12;;;;;;;;;;;13.40;53.80;;;9.26;98.04;95360.13;5014158;28;19905;-44
2023/04/11 04:19:38;;;;;;;;;;;13.30;54.00;;;9.29;99.18;95366.00;5000001;28;19996;-47
2023/04/11 04:22:10;;;;;;;;;;;13.30;53.80;;;9.25;100.00;95373.69;5010630;28;19905;-46
2023/04/11 04:24:46;;;;;;;;;;;13.20;53.70;;;9.16;100.00;95377.91;4994695;28;19909;-44
2023/04/11 04:27:17;;;;;;;;;;;13.20;53.80;;;9.12;100.00;95372.34;4995950;28;20012;-47
2023/04/11 04:29:46;;;;;;;;;;;13.20;53.90;;;9.07;100.00;95351.03;5014304;28;19944;-43
2023/04/11 04:32:13;;;;;;;;;;;13.10;54.00;;;9.01;100.00;95355.53;5015445;28;20085;-45
2023/04/11 04:34:45;;;;;;;;;;;13.20;54.20;;;8.98;100.00;95372.00;5014273;28;19909;-45
2023/04/11 04:37:21;;;;;;;;;;;13.10;54.20;;;8.90;100.00;95375.16;5015428;28;20337;-43
2023/04/11 04:39:54;;;;;;;;;;;13.00;54.30;;;8.82;100.00;95383.59;5014452;28;19905;-45
2023/04/11 04:42:22;;;;;;;;;;;13.00;54.80;;;8.76;100.00;95377.47;5015065;28;19944;-45
2023/04/11 04:44:49;;;;;;;;;;;13.00;54.80;;;8.71;100.00;95379.28;5014985;28;19913;-44
2023/04/11 04:47:16;;;;;;;;;;;12.90;54.80;;;8.67;100.00;95388.84;5013998;28;19908;-44
2023/04/11 04:49:45;;;;;;;;;;;12.90;54.90;;;8.62;100.00;95388.78;5015135;28;19949;-44
2023/04/11 04:52:15;;;;;;;;;;;12.80;55.10;;;8.55;100.00;95396.97;5014445;28;19959;-44
2023/04/11 04:54:41;;;;;;;;;;;12.80;55.30;;;8.50;100.00;95387.16;5029881;28;19931;-45
2023/04/11 04:57:07;;;;;;;;;;;12.70;55.40;;;8.54;100.00;95393.53;5015063;28;20359;-45
2023/04/11 04:59:33;;;;;;;;;;;12.70;55.40;;;8.53;100.00;95389.28;5014178;28;19905;-45
2023/04/11 05:01:59;;;;;;;;;;;12.70;55.40;;;8.50;100.00;95395.09;5014531;28;19931;-43
2023/04/11 05:04:25;;;;;;;;;;;12.70;55.50;;;8.49;100.00;95396.19;5014194;28;20371;-45
2023/04/11 05:06:51;;;;;;;;;;;12.60;55.50;;;8.46;100.00;95396.69;5014645;28;19905;-44
2023/04/11 05:09:17;;;;;;;;;;;12.60;55.60;;;8.43;100.00;95402.50;5014367;28;19940;-49
2023/04/11 05:11:43;;;;;;;;;;;12.60;55.70;;;8.47;100.00;95408.88;5011511;28;19958;-44
2023/04/11 05:14:09;;;;;;;;;;;12.60;55.90;;;8.44;100.00;95414.72;5014581;28;19913;-44
2023/04/11 05:16:36;;;;;;;;;;;12.60;56.10;;;8.46;100.00;95415.25;5013462;28;19909;-42
2023/04/11 05:19:02;;;;;;;;;;;12.60;56.20;;;8.48;100.00;95418.44;5014940;28;19927;-46
2023/04/11 05:21:28;;;;;;;;;;;12.60;56.20;;;8.39;100.00;95422.63;5013675;28;20358;-45
2023/04/11 05:23:54;;;;;;;;;;;12.60;56.40;;;8.35;100.00;95416.19;5029461;28;20000;-47
2023/04/11 05:26:19;;;;;;;;;;;12.60;56.60;;;8.36;100.00;95415.13;5013750;28;19936;-47
2023/04/11 05:28:45;;;;;;;;;;;12.50;57.60;;;8.34;100.00;95414.63;5013487;28;19909;-45
2023/04/11 05:31:11;;;;;;;;;;;12.50;57.10;;;8.38;100.00;95410.41;5014373;28;19905;-46
2023/04/11 05:33:38;;;;;;;;;;;12.50;57.10;;;8.34;100.00;95419.91;5013274;28;19913;-46
2023/04/11 05:36:05;;;;;;;;;;;12.50;57.10;;;8.31;100.00;95405.31;5014488;28;19904;-46
2023/04/11 05:38:34;;;;;;;;;;;12.50;57.20;;;8.30;100.00;95416.97;5014149;28;19914;-46
2023/04/11 05:41:00;;;;;;;;;;;12.50;57.30;;;8.34;100.00;95417.25;5000709;28;19908;-45
2023/04/11 05:43:25;;;;;;;;;;;12.50;57.30;;;8.37;100.00;95416.75;4993287;28;19909;-45
2023/04/11 05:45:51;;;;;;;;;;;12.40;57.20;;;8.38;100.00;95430.81;4998191;28;19920;-47
2023/04/11 05:48:18;;;;;;;;;;;12.50;57.30;;;8.37;100.00;95426.56;5014416;28;20334;-45
2023/04/11 05:50:45;;;;;;;;;;;12.50;57.20;;;8.37;100.00;95423.91;4998748;28;19954;-45
2023/04/11 05:53:11;;;;;;;;;;;12.50;57.20;;;8.38;100.00;95425.50;5009077;28;20395;-47
2023/04/11 05:55:37;;;;;;;;;;;12.50;57.30;;;8.41;100.00;95419.72;5014044;28;19909;-46
2023/04/11 05:58:03;;;;;;;;;;;12.50;57.30;;;8.43;100.00;95415.78;5013136;28;19912;-46
2023/04/11 06:00:31;;;;;;;;;;;12.60;57.40;;;8.45;100.00;95420.81;5014022;28;19926;-45
2023/04/11 06:03:00;;;;;;;;;;;12.60;57.40;;;8.41;100.00;95422.38;5013792;28;19955;-44
2023/04/11 06:05:30;;;;;;;;;;;12.60;57.50;;;8.46;100.00;95425.06;4995388;28;19944;-46
2023/04/11 06:08:00;;;;;;;;;;;12.60;57.50;;;8.48;100.00;95420.31;4994199;28;19909;-47
2023/04/11 06:10:28;;;;;;;;;;;12.60;57.50;;;8.53;100.00;95423.81;5001872;28;19905;-47
2023/04/11 06:12:54;;;;;;;;;;;12.70;57.50;;;8.50;100.00;95426.97;5013605;28;19905;-45
2023/04/11 06:15:22;;;;;;;;;;;12.70;57.60;;;8.57;100.00;95424.09;5013487;28;19932;-47
2023/04/11 06:17:49;;;;;;;;;;;12.70;57.70;;;8.63;100.00;95420.41;5013140;28;19912;-46
2023/04/11 06:20:15;;;;;;;;;;;12.80;57.70;;;8.65;100.00;95420.97;5000284;28;19967;-45
2023/04/11 06:22:42;;;;;;;;;;;12.80;57.70;;;8.66;100.00;95424.41;5000566;28;19912;-46
2023/04/11 06:25:09;;;;;;;;;;;12.90;57.80;;;8.70;100.00;95415.66;5010307;28;19912;-47
2023/04/11 06:27:35;;;;;;;;;;;12.90;57.90;;;8.72;100.00;95421.53;5010661;28;19916;-45
2023/04/11 06:30:00;;;;;;;;;;;13.00;58.00;;;8.74;100.00;95424.75;5010488;28;19905;-46
2023/04/11 06:32:27;;;;;;;;;;;13.00;58.10;;;8.78;100.00;95422.38;5012434;28;20323;-46
2023/04/11 06:34:53;;;;;;;;;;;13.00;58.10;;;8.79;100.00;95423.97;5011992;28;19909;-47
2023/04/11 06:37:19;;;;;;;;;;;13.00;58.10;;;8.80;100.00;95420.25;5012389;28;19913;-46
2023/04/11 06:39:45;;;;;;;;;;;13.10;58.50;;;8.84;100.00;95431.97;5012280;28;19913;-47
2023/04/11 06:42:11;;;;;;;;;;;13.10;58.30;;;8.86;100.00;95429.84;5013265;28;19912;-49
2023/04/11 06:44:37;;;;;;;;;;;13.10;58.30;;;8.88;100.00;95432.25;5013258;28;19920;-47
2023/04/11 06:47:02;;;;;;;;;;;13.10;58.40;;;8.88;100.00;95432.25;4999010;28;19912;-46
2023/04/11 06:49:29;;;;;;;;;;;13.10;58.40;;;8.89;100.00;95444.47;4993445;28;19905;-48
2023/04/11 06:51:55;;;;;;;;;;;13.20;58.40;;;8.97;100.00;95451.97;4996939;28;19980;-49
2023/04/11 06:54:21;;;;;;;;;;;13.20;58.40;;;9.01;100.00;95450.38;5012560;28;19909;-46
2023/04/11 06:56:49;;;;;;;;;;;13.30;58.40;;;9.01;100.00;95448.53;5012575;28;20422;-49
2023/04/11 06:59:18;;;;;;;;;;;13.40;58.50;;;9.08;100.00;95456.25;5011940;28;19909;-49
2023/04/11 07:01:44;;;;;;;;;;;13.40;58.40;;;9.02;100.00;95444.00;5012437;28;19905;-49
2023/04/11 07:04:10;;;;;;;;;;;13.40;58.50;;;8.99;100.00;95458.63;5011799;28;19905;-48
2023/04/11 07:06:36;;;;;;;;;;;13.40;58.70;;;8.96;100.00;95456.47;5012730;28;20286;-50
2023/04/11 07:09:03;;;;;;;;;;;13.40;59.30;;;8.99;100.00;95461.28;5011456;28;19912;-47
2023/04/11 07:11:29;;;;;;;;;;;13.40;58.70;;;8.90;100.00;95457.50;5009156;28;19912;-48
2023/04/11 07:14:00;;;;;;;;;;;13.40;58.80;;;8.93;100.00;95456.16;5012301;28;19971;-46
2023/04/11 07:16:26;;;;;;;;;;;13.50;58.80;;;8.93;100.00;95466.78;5006776;28;19912;-46
2023/04/11 07:18:54;;;;;;;;;;;13.40;58.90;;;8.93;100.00;95462.31;4992814;28;19909;-48
2023/04/11 07:21:20;;;;;;;;;;;13.40;58.90;;;8.88;100.00;95467.56;4992462;28;19999;-51
2023/04/11 07:23:46;;;;;;;;;;;13.40;59.10;;;8.87;100.00;95473.97;5012384;28;20338;-47
2023/04/11 07:26:13;;;;;;;;;;;13.40;59.20;;;8.92;100.00;95467.88;5012492;28;19996;-51
2023/04/11 07:28:40;;;;;;;;;;;13.40;59.20;;;8.80;100.00;95460.88;5009921;28;19912;-47
2023/04/11 07:31:12;;;;;;;;;;;13.40;59.30;;;8.84;100.00;95474.47;5012208;28;20442;-52
2023/04/11 07:33:41;;;;;;;;;;;13.40;59.30;;;8.86;100.00;95471.53;4996743;28;19909;-53
2023/04/11 07:36:07;;;;;;;;;;;13.40;59.40;;;8.86;100.00;95480.31;5004557;28;20360;-50
2023/04/11 07:38:36;;;;;;;;;;;13.40;59.50;;;8.80;100.00;95484.78;4995826;28;20279;-52
2023/04/11 07:41:04;;;;;;;;;;;13.30;59.60;;;8.77;100.00;95482.66;5002693;28;19912;-50
2023/04/11 07:43:30;;;;;;;;;;;13.30;59.80;;;8.72;100.00;95495.88;4994971;28;20031;-51
2023/04/11 07:45:58;;;;;;;;;;;13.30;59.80;;;8.65;100.00;95497.16;5000022;28;19913;-53
2023/04/11 07:48:26;;;;;;;;;;;13.30;59.90;;;8.61;100.00;95506.69;5008263;28;19912;-52
2023/04/11 07:50:53;;;;;;;;;;;13.20;60.00;;;8.48;100.00;95502.59;5007763;28;19908;-49
2023/04/11 07:53:20;;;;;;;;;;;13.10;60.10;;;8.56;100.00;95512.75;4996979;28;19905;-51
2023/04/11 07:55:46;;;;;;;;;;;13.10;60.30;;;8.53;100.00;95516.72;5004656;28;20004;-52
2023/04/11 07:58:12;;;;;;;;;;;13.10;60.40;;;8.54;100.00;95514.88;4993258;28;20391;-48
2023/04/11 08:00:38;;;;;;;;;;;13.20;60.40;;;8.45;100.00;95521.69;4992331;28;19944;-48
2023/04/11 08:03:12;;;;;;;;;;;13.20;60.50;;;8.47;100.00;95532.88;4991815;28;19959;-48
2023/04/11 08:05:38;;;;;;;;;;;13.10;60.50;;;8.51;100.00;95523.34;5009865;28;19921;-49
2023/04/11 08:08:04;;;;;;;;;;;13.10;60.50;;;8.50;100.00;95517.22;5011963;28;19905;-50
2023/04/11 08:10:30;;;;;;;;;;;13.10;60.60;;;8.48;100.00;95521.97;5006824;28;19912;-50
2023/04/11 08:12:59;;;;;;;;;;;13.10;60.60;;;8.52;100.00;95524.94;5011505;28;20363;-49
2023/04/11 08:15:25;;;;;;;;;;;13.20;60.50;;;8.56;100.00;95526.84;5011164;28;19920;-54
2023/04/11 08:17:55;;;;;;;;;;;13.30;60.40;;;8.63;100.00;95529.28;5011591;28;19908;-48
2023/04/11 08:20:22;;;;;;;;;;;13.40;60.20;;;8.70;100.00;95532.50;5011709;28;19912;-49
2023/04/11 08:22:49;;;;;;;;;;;13.50;60.20;;;8.82;100.00;95529.69;5010704;28;19912;-48
2023/04/11 08:25:18;;;;;;;;;;;13.70;60.10;;;8.85;100.00;95533.69;5011525;28;19916;-51
2023/04/11 08:27:44;;;;;;;;;;;13.80;60.70;;;8.91;100.00;95541.44;5010946;28;19905;-49
2023/04/11 08:30:11;;;;;;;;;;;13.80;59.90;;;8.78;100.00;95536.56;5011386;28;19905;-49
2023/04/11 08:32:37;;;;;;;;;;;13.80;59.80;;;8.83;100.00;95555.19;5011595;28;20369;-48
2023/04/11 08:35:04;;;;;;;;;;;13.80;59.80;;;8.62;100.00;95559.53;5010620;28;19913;-49
2023/04/11 08:37:30;;;;;;;;;;;13.70;59.90;;;8.44;100.00;95566.00;5010346;28;20378;-48
2023/04/11 08:39:56;;;;;;;;;;;13.50;59.90;;;8.25;100.00;95570.84;5011159;28;19905;-49
2023/04/11 08:42:28;;;;;;;;;;;13.40;59.90;;;8.39;100.00;95571.25;5011165;28;19905;-49
2023/04/11 08:44:58;;;;;;;;;;;13.40;59.90;;;8.28;99.82;95580.97;5011075;28;19917;-49
2023/04/11 08:47:25;;;;;;;;;;;13.30;59.90;;;8.19;99.78;95585.09;5010663;28;19905;-48
2023/04/11 08:49:52;;;;;;;;;;;13.30;59.80;;;8.18;99.81;95590.66;5011459;28;20015;-51
2023/04/11 08:52:19;;;;;;;;;;;13.30;59.80;;;8.25;99.23;95596.59;5009180;28;19905;-49
2023/04/11 08:54:46;;;;;;;;;;;13.30;59.80;;;8.37;99.57;95591.09;5026472;28;19916;-51
2023/04/11 08:57:25;;;;;;;;;;;13.30;59.80;;;8.41;98.04;95597.56;5011114;28;19970;-46
2023/04/11 08:59:55;;;;;;;;;;;13.30;59.70;;;8.46;97.36;95589.63;5010741;28;19905;-46
2023/04/11 09:02:21;;;;;;;;;;;13.40;59.70;;;8.53;97.02;95588.41;5012671;28;19943;-48
2023/04/11 09:04:47;;;;;;;;;;;13.50;59.60;;;8.63;95.23;95581.59;5014373;28;19912;-46
2023/04/11 09:07:15;;;;;;;;;;;13.60;59.50;;;8.67;95.09;95591.44;5015129;28;19912;-47
2023/04/11 09:09:42;;;;;;;;;;;13.80;59.40;;;8.71;91.68;95592.56;5009636;28;19909;-46
2023/04/11 09:12:08;;;;;;;;;;;13.90;59.20;;;8.87;92.30;95593.50;5014951;28;19908;-47
2023/04/11 09:14:34;;;;;;;;;;;14.10;59.10;;;9.06;90.27;95587.75;5014553;28;19923;-47
2023/04/11 09:17:03;;;;;;;;;;;14.30;58.90;;;9.16;88.11;95596.63;5013804;28;19904;-48
2023/04/11 09:19:32;;;;;;;;;;;14.60;58.60;;;9.45;87.03;95599.75;5014696;28;19905;-47
2023/04/11 09:22:06;;;;;;;;;;;15.00;58.30;;;9.70;83.73;95585.00;5013715;28;19905;-47
2023/04/11 09:24:33;;;;;;;;;;;15.40;57.90;;;9.95;81.66;95585.09;5014356;28;19947;-46
2023/04/11 09:27:14;;;;;;;;;;;15.90;57.50;;;10.18;78.62;95583.06;5014597;28;19905;-47
2023/04/11 09:29:46;;;;;;;;;;;16.30;56.90;;;10.34;78.21;95581.25;5013474;28;19909;-47
2023/04/11 09:32:29;;;;;;;;;;;16.60;56.30;;;10.48;76.71;95587.69;5013331;28;19905;-46
2023/04/11 09:35:06;;;;;;;;;;;16.90;55.90;;;10.73;78.60;95600.25;5008917;28;19913;-47
2023/04/11 09:37:47;;;;;;;;;;;17.00;55.50;;;10.80;73.75;95592.78;5008591;28;19947;-47
2023/04/11 09:40:16;;;;;;;;;;;17.10;55.30;;;10.77;74.54;95600.53;5006938;28;19913;-47
2023/04/11 09:42:44;;;;;;;;;;;17.10;55.00;;;10.73;73.47;95597.59;5008529;28;19908;-48
2023/04/11 09:45:22;;;;;;;;;;;17.10;54.80;;;10.44;70.30;95596.50;4996746;28;20007;-48
2023/04/11 09:47:51;;;;;;;;;;;17.10;54.30;;;10.32;71.56;95602.84;5012077;28;19905;-47
2023/04/11 09:50:18;;;;;;;;;;;17.00;53.80;;;10.37;71.61;95602.03;5014066;28;19905;-47
2023/04/11 09:52:45;;;;;;;;;;;17.00;53.50;;;10.53;70.20;95609.03;5012857;28;19905;-48
2023/04/11 09:55:15;;;;;;;;;;;17.00;53.30;;;10.53;67.43;95608.19;5013841;28;20293;-48
2023/04/11 09:57:48;;;;;;;;;;;17.00;53.20;;;10.50;67.56;95598.06;5011077;28;20290;-47
2023/04/11 10:00:22;;;;;;;;;;;17.00;53.10;;;10.37;68.07;95602.84;4994134;28;20383;-47
2023/04/11 10:02:52;;;;;;;;;;;17.00;52.60;;;10.59;67.21;95589.31;4993861;28;19909;-47
2023/04/11 10:05:20;;;;;;;;;;;17.10;52.40;;;10.84;67.28;95599.22;5008930;28;19949;-47
2023/04/11 10:08:01;;;;;;;;;;;17.40;52.20;;;10.81;67.26;95585.59;5014107;28;20485;-47
2023/04/11 10:10:27;;;;;;;;;;;17.60;51.70;;;10.89;65.75;95590.41;5016187;28;19905;-49
2023/04/11 10:12:53;;;;;;;;;;;17.80;51.20;;;10.91;65.95;95601.63;5012287;28;19912;-48
2023/04/11 10:15:20;;;;;;;;;;;18.00;50.60;;;11.18;65.05;95587.22;5013781;28;19913;-49
2023/04/11 10:18:12;;;;;;;;;;;18.20;50.40;;;11.42;62.59;95582.13;5012116;28;20390;-53
2023/04/11 10:20:45;;;;;;;;;;;18.50;50.10;;;11.62;61.52;95581.28;5012466;28;19905;-50
2023/04/11 10:23:13;;;;;;;;;;;18.80;49.80;;;11.73;61.60;95593.53;5013070;28;19905;-51
2023/04/11 10:26:00;;;;;;;;;;;18.90;49.30;;;11.78;60.79;95605.00;5011815;28;19904;-48
2023/04/11 10:28:39;;;;;;;;;;;19.10;48.80;;;11.70;61.69;95602.88;5012733;28;20376;-50
2023/04/11 10:31:08;;;;;;;;;;;19.30;48.20;;;11.70;60.24;95612.75;5012604;28;19912;-49
2023/04/11 10:33:36;;;;;;;;;;;19.30;47.90;;;11.98;61.76;95617.50;5012213;28;19958;-52
2023/04/11 10:36:09;;;;;;;;;;;19.40;48.00;;;11.97;59.70;95629.25;4993410;28;19905;-51
2023/04/11 10:38:50;;;;;;;;;;;19.50;47.80;;;11.89;60.77;95632.47;4993405;28;19909;-49
2023/04/11 10:41:27;;;;;;;;;;;19.50;47.20;;;12.17;61.14;95624.91;5007100;28;19915;-47
2023/04/11 10:44:12;;;;;;;;;;;19.40;47.20;;;12.11;58.53;95623.34;5012816;28;19905;-49
2023/04/11 10:46:49;;;;;;;;;;;19.40;47.40;;;11.88;57.88;95628.22;5011868;28;19905;-49
2023/04/11 10:49:51;;;;;;;;;;;19.40;47.20;;;11.87;59.03;95629.25;5013008;28;19982;-48
2023/04/11 10:52:21;;;;;;;;;;;19.10;47.10;;;11.71;59.69;95630.34;4990229;28;19912;-48
2023/04/11 10:54:53;;;;;;;;;;;18.90;47.10;;;11.32;60.43;95622.94;5009071;28;19909;-50
2023/04/11 10:57:21;;;;;;;;;;;18.70;46.60;;;11.40;58.50;95610.91;5012423;28;19912;-47
2023/04/11 10:59:49;;;;;;;;;;;18.60;46.60;;;11.63;58.81;95606.91;5012144;28;19928;-47
2023/04/11 11:02:18;;;;;;;;;;;18.50;46.60;;;11.65;59.48;95607.41;5012625;28;19909;-47
2023/04/11 11:04:45;;;;;;;;;;;18.50;46.70;;;11.71;59.57;95617.00;5011703;28;19912;-47
2023/04/11 11:07:15;;;;;;;;;;;18.40;46.70;;;11.81;59.53;95616.97;5012688;28;19951;-47
2023/04/11 11:09:48;;;;;;;;;;;18.50;46.60;;;11.93;58.24;95612.16;5011523;28;20019;-48
2023/04/11 11:12:15;;;;;;;;;;;18.70;47.20;;;12.01;58.74;95605.47;5012619;28;20003;-47
2023/04/11 11:14:45;;;;;;;;;;;18.80;46.40;;;12.31;58.16;95607.22;5012317;28;19909;-47
2023/04/11 11:17:13;;;;;;;;;;;18.90;46.40;;;12.35;56.92;95616.28;5011626;28;20386;-47
2023/04/11 11:19:44;;;;;;;;;;;18.90;46.20;;;12.33;56.83;95613.09;5012474;28;19931;-48
2023/04/11 11:22:24;;;;;;;;;;;18.90;46.00;;;12.01;56.88;95613.50;5011270;28;20371;-48